sensor_id;sensor_type;location;lat;lon;timestamp;temperature;humidity
3100;DHT22;1560;52.746;13.474;2023-02-28T00:03:05;-1.20;99.90
3100;DHT22;1560;52.746;13.474;2023-02-28T00:05:34;-1.20;99.90
3100;DHT22;1560;52.746;13.474;2023-02-28T00:08:03;-1.30;99.90
3100;DHT22;1560;52.746;13.474;2023-02-28T00:13:09;-1.40;99.90
3100;DHT22;1560;52.746;13.474;2023-02-28T00:15:39;-1.40;99.90
3100;DHT22;1560;52.746;13.474;2023-02-28T00:18:08;-1.50;99.90
3100;DHT22;1560;52.746;13.474;2023-02-28T00:20:36;-1.50;99.90
3100;DHT22;1560;52.746;13.474;2023-02-28T00:23:05;-1.40;99.90
3100;DHT22;1560;52.746;13.474;2023-02-28T00:25:34;-1.40;99.90
3100;DHT22;1560;52.746;13.474;2023-02-28T00:28:03;-1.40;99.90
3100;DHT22;1560;52.746;13.474;2023-02-28T00:33:09;-1.40;99.90
3100;DHT22;1560;52.746;13.474;2023-02-28T00:35:38;-1.50;99.90
3100;DHT22;1560;52.746;13.474;2023-02-28T00:38:07;-1.40;99.90
3100;DHT22;1560;52.746;13.474;2023-02-28T00:43:24;-1.40;99.90
3100;DHT22;1560;52.746;13.474;2023-02-28T00:45:53;-1.50;99.90
3100;DHT22;1560;52.746;13.474;2023-02-28T00:48:21;-1.50;99.90
3100;DHT22;1560;52.746;13.474;2023-02-28T00:50:50;-1.50;99.90
3100;DHT22;1560;52.746;13.474;2023-02-28T00:53:19;-1.60;99.90
3100;DHT22;1560;52.746;13.474;2023-02-28T00:55:48;-1.60;99.90
3100;DHT22;1560;52.746;13.474;2023-02-28T01:00:54;-1.60;99.90
3100;DHT22;1560;52.746;13.474;2023-02-28T01:05:59;-1.60;99.90
3100;DHT22;1560;52.746;13.474;2023-02-28T01:08:28;-1.60;99.90
3100;DHT22;1560;52.746;13.474;2023-02-28T01:10:57;-1.60;99.90
3100;DHT22;1560;52.746;13.474;2023-02-28T01:13:26;-1.70;99.90
3100;DHT22;1560;52.746;13.474;2023-02-28T01:15:56;-1.70;99.90
3100;DHT22;1560;52.746;13.474;2023-02-28T01:18:25;-1.80;99.90
3100;DHT22;1560;52.746;13.474;2023-02-28T01:20:54;-1.80;99.90
3100;DHT22;1560;52.746;13.474;2023-02-28T01:23:23;-1.80;99.90
3100;DHT22;1560;52.746;13.474;2023-02-28T01:25:52;-1.80;99.90
3100;DHT22;1560;52.746;13.474;2023-02-28T01:28:22;-1.80;99.90
3100;DHT22;1560;52.746;13.474;2023-02-28T01:30:51;-1.90;99.90
3100;DHT22;1560;52.746;13.474;2023-02-28T01:33:20;-1.80;99.90
3100;DHT22;1560;52.746;13.474;2023-02-28T01:38:25;-1.90;99.90
3100;DHT22;1560;52.746;13.474;2023-02-28T01:40:54;-1.90;99.90
3100;DHT22;1560;52.746;13.474;2023-02-28T01:46:00;-1.90;99.90
3100;DHT22;1560;52.746;13.474;2023-02-28T01:48:31;-1.90;99.90
3100;DHT22;1560;52.746;13.474;2023-02-28T01:51:03;-2.00;99.90
3100;DHT22;1560;52.746;13.474;2023-02-28T01:56:13;-2.10;99.90
3100;DHT22;1560;52.746;13.474;2023-02-28T01:58:45;-2.10;99.90
3100;DHT22;1560;52.746;13.474;2023-02-28T02:03:54;-2.10;99.90
3100;DHT22;1560;52.746;13.474;2023-02-28T02:06:24;-2.10;99.90
3100;DHT22;1560;52.746;13.474;2023-02-28T02:08:53;-2.10;99.90
3100;DHT22;1560;52.746;13.474;2023-02-28T02:11:23;-2.10;99.90
3100;DHT22;1560;52.746;13.474;2023-02-28T02:16:54;-2.30;99.90
3100;DHT22;1560;52.746;13.474;2023-02-28T02:22:38;-2.40;99.90
3100;DHT22;1560;52.746;13.474;2023-02-28T02:25:23;-2.30;99.90
3100;DHT22;1560;52.746;13.474;2023-02-28T02:36:57;-2.40;99.90
3100;DHT22;1560;52.746;13.474;2023-02-28T02:42:11;-2.40;99.90
3100;DHT22;1560;52.746;13.474;2023-02-28T02:44:48;-2.40;99.90
3100;DHT22;1560;52.746;13.474;2023-02-28T02:47:20;-2.40;99.90
3100;DHT22;1560;52.746;13.474;2023-02-28T02:55:28;-2.40;99.90
3100;DHT22;1560;52.746;13.474;2023-02-28T02:58:01;-2.40;99.90
3100;DHT22;1560;52.746;13.474;2023-02-28T03:03:10;-2.50;99.90
3100;DHT22;1560;52.746;13.474;2023-02-28T03:05:43;-2.50;99.90
3100;DHT22;1560;52.746;13.474;2023-02-28T03:08:22;-2.50;99.90
3100;DHT22;1560;52.746;13.474;2023-02-28T03:10:51;-2.50;99.90
3100;DHT22;1560;52.746;13.474;2023-02-28T03:16:33;-2.50;99.90
3100;DHT22;1560;52.746;13.474;2023-02-28T03:19:10;-2.60;99.90
3100;DHT22;1560;52.746;13.474;2023-02-28T03:24:18;-2.60;99.90
3100;DHT22;1560;52.746;13.474;2023-02-28T03:26:50;-2.60;99.90
3100;DHT22;1560;52.746;13.474;2023-02-28T03:29:22;-2.60;99.90
3100;DHT22;1560;52.746;13.474;2023-02-28T03:34:29;-2.70;99.90
3100;DHT22;1560;52.746;13.474;2023-02-28T03:37:30;-2.70;99.90
3100;DHT22;1560;52.746;13.474;2023-02-28T03:40:04;-2.80;99.90
3100;DHT22;1560;52.746;13.474;2023-02-28T03:42:37;-2.80;99.90
3100;DHT22;1560;52.746;13.474;2023-02-28T03:45:11;-2.80;99.90
3100;DHT22;1560;52.746;13.474;2023-02-28T03:50:18;-2.90;99.90
3100;DHT22;1560;52.746;13.474;2023-02-28T03:52:51;-2.90;99.90
3100;DHT22;1560;52.746;13.474;2023-02-28T03:55:21;-2.80;99.90
3100;DHT22;1560;52.746;13.474;2023-02-28T04:00:31;-2.80;99.90
3100;DHT22;1560;52.746;13.474;2023-02-28T04:03:00;-2.90;99.90
3100;DHT22;1560;52.746;13.474;2023-02-28T04:08:08;-2.90;99.90
3100;DHT22;1560;52.746;13.474;2023-02-28T04:10:37;-2.90;99.90
3100;DHT22;1560;52.746;13.474;2023-02-28T04:13:06;-2.90;99.90
3100;DHT22;1560;52.746;13.474;2023-02-28T04:18:12;-3.00;99.90
3100;DHT22;1560;52.746;13.474;2023-02-28T04:20:41;-3.00;99.90
3100;DHT22;1560;52.746;13.474;2023-02-28T04:23:09;-3.00;99.90
3100;DHT22;1560;52.746;13.474;2023-02-28T04:25:38;-3.00;99.90
3100;DHT22;1560;52.746;13.474;2023-02-28T04:28:07;-3.00;99.90
3100;DHT22;1560;52.746;13.474;2023-02-28T04:30:38;-3.00;99.90
3100;DHT22;1560;52.746;13.474;2023-02-28T04:33:07;-3.00;99.90
3100;DHT22;1560;52.746;13.474;2023-02-28T04:35:36;-3.00;99.90
3100;DHT22;1560;52.746;13.474;2023-02-28T04:38:04;-3.10;99.90
3100;DHT22;1560;52.746;13.474;2023-02-28T04:40:33;-3.10;99.90
3100;DHT22;1560;52.746;13.474;2023-02-28T04:43:02;-3.10;99.90
3100;DHT22;1560;52.746;13.474;2023-02-28T04:45:31;-3.10;99.90
3100;DHT22;1560;52.746;13.474;2023-02-28T04:48:01;-3.20;99.90
3100;DHT22;1560;52.746;13.474;2023-02-28T04:50:30;-3.20;99.90
3100;DHT22;1560;52.746;13.474;2023-02-28T04:55:35;-3.20;99.90
3100;DHT22;1560;52.746;13.474;2023-02-28T04:58:04;-3.30;99.90
3100;DHT22;1560;52.746;13.474;2023-02-28T05:00:32;-3.30;99.90
3100;DHT22;1560;52.746;13.474;2023-02-28T05:03:01;-3.30;99.90
3100;DHT22;1560;52.746;13.474;2023-02-28T05:08:07;-3.40;99.90
3100;DHT22;1560;52.746;13.474;2023-02-28T05:13:13;-3.40;99.90
3100;DHT22;1560;52.746;13.474;2023-02-28T05:15:42;-3.40;99.90
3100;DHT22;1560;52.746;13.474;2023-02-28T05:18:11;-3.50;99.90
3100;DHT22;1560;52.746;13.474;2023-02-28T05:20:40;-3.60;99.90
3100;DHT22;1560;52.746;13.474;2023-02-28T05:23:11;-3.70;99.90
3100;DHT22;1560;52.746;13.474;2023-02-28T05:25:41;-3.70;99.90
3100;DHT22;1560;52.746;13.474;2023-02-28T05:28:10;-3.70;99.90
3100;DHT22;1560;52.746;13.474;2023-02-28T05:30:39;-3.70;99.90
3100;DHT22;1560;52.746;13.474;2023-02-28T05:33:11;-3.70;99.90
3100;DHT22;1560;52.746;13.474;2023-02-28T05:35:41;-3.80;99.90
3100;DHT22;1560;52.746;13.474;2023-02-28T05:38:10;-3.80;99.90
3100;DHT22;1560;52.746;13.474;2023-02-28T05:40:39;-3.80;99.90
3100;DHT22;1560;52.746;13.474;2023-02-28T05:45:48;-3.80;99.90
3100;DHT22;1560;52.746;13.474;2023-02-28T05:48:17;-3.80;99.90
3100;DHT22;1560;52.746;13.474;2023-02-28T05:53:24;-3.90;99.90
3100;DHT22;1560;52.746;13.474;2023-02-28T05:55:53;-3.90;99.90
3100;DHT22;1560;52.746;13.474;2023-02-28T05:58:22;-3.90;99.90
3100;DHT22;1560;52.746;13.474;2023-02-28T06:03:29;-3.80;99.90
3100;DHT22;1560;52.746;13.474;2023-02-28T06:08:34;-3.80;99.90
3100;DHT22;1560;52.746;13.474;2023-02-28T06:13:40;-3.90;99.90
3100;DHT22;1560;52.746;13.474;2023-02-28T06:16:11;-3.80;99.90
3100;DHT22;1560;52.746;13.474;2023-02-28T06:18:40;-3.80;99.90
3100;DHT22;1560;52.746;13.474;2023-02-28T06:21:09;-3.80;99.90
3100;DHT22;1560;52.746;13.474;2023-02-28T06:23:37;-3.80;99.90
3100;DHT22;1560;52.746;13.474;2023-02-28T06:28:46;-3.70;99.90
3100;DHT22;1560;52.746;13.474;2023-02-28T06:31:17;-3.70;99.90
3100;DHT22;1560;52.746;13.474;2023-02-28T06:36:23;-3.70;99.90
3100;DHT22;1560;52.746;13.474;2023-02-28T06:41:30;-3.70;99.90
3100;DHT22;1560;52.746;13.474;2023-02-28T06:46:43;-3.60;99.90
3100;DHT22;1560;52.746;13.474;2023-02-28T06:49:14;-3.70;99.90
3100;DHT22;1560;52.746;13.474;2023-02-28T06:51:44;-3.80;99.90
3100;DHT22;1560;52.746;13.474;2023-02-28T06:57:06;-3.80;99.90
3100;DHT22;1560;52.746;13.474;2023-02-28T06:59:36;-3.80;99.90
3100;DHT22;1560;52.746;13.474;2023-02-28T07:04:44;-3.70;99.90
3100;DHT22;1560;52.746;13.474;2023-02-28T07:07:13;-3.60;99.90
3100;DHT22;1560;52.746;13.474;2023-02-28T07:15:09;-3.50;99.90
3100;DHT22;1560;52.746;13.474;2023-02-28T07:17:38;-3.50;99.90
3100;DHT22;1560;52.746;13.474;2023-02-28T07:25:45;-3.40;99.90
3100;DHT22;1560;52.746;13.474;2023-02-28T07:28:15;-3.30;99.90
3100;DHT22;1560;52.746;13.474;2023-02-28T07:33:20;-3.30;99.90
3100;DHT22;1560;52.746;13.474;2023-02-28T07:35:49;-3.20;99.90
3100;DHT22;1560;52.746;13.474;2023-02-28T07:38:18;-3.20;99.90
3100;DHT22;1560;52.746;13.474;2023-02-28T07:43:23;-3.10;99.90
3100;DHT22;1560;52.746;13.474;2023-02-28T07:45:52;-3.10;99.90
3100;DHT22;1560;52.746;13.474;2023-02-28T07:48:30;-3.10;99.90
3100;DHT22;1560;52.746;13.474;2023-02-28T07:50:59;-3.00;99.90
3100;DHT22;1560;52.746;13.474;2023-02-28T07:53:29;-3.00;99.90
3100;DHT22;1560;52.746;13.474;2023-02-28T07:58:37;-2.90;99.90
3100;DHT22;1560;52.746;13.474;2023-02-28T08:01:08;-2.80;99.90
3100;DHT22;1560;52.746;13.474;2023-02-28T08:03:38;-2.70;99.90
3100;DHT22;1560;52.746;13.474;2023-02-28T08:06:14;-2.60;99.90
3100;DHT22;1560;52.746;13.474;2023-02-28T08:08:38;-2.50;99.90
3100;DHT22;1560;52.746;13.474;2023-02-28T08:13:44;-2.10;99.90
3100;DHT22;1560;52.746;13.474;2023-02-28T08:16:14;-1.90;99.90
3100;DHT22;1560;52.746;13.474;2023-02-28T08:18:48;-1.50;99.90
3100;DHT22;1560;52.746;13.474;2023-02-28T08:21:19;-1.40;99.90
3100;DHT22;1560;52.746;13.474;2023-02-28T08:23:48;-1.30;99.90
3100;DHT22;1560;52.746;13.474;2023-02-28T08:28:54;-1.10;99.90
3100;DHT22;1560;52.746;13.474;2023-02-28T08:31:22;-1.10;99.90
3100;DHT22;1560;52.746;13.474;2023-02-28T08:33:51;-1.00;99.90
3100;DHT22;1560;52.746;13.474;2023-02-28T08:36:20;-1.00;99.90
3100;DHT22;1560;52.746;13.474;2023-02-28T08:38:49;-0.90;99.90
3100;DHT22;1560;52.746;13.474;2023-02-28T08:43:54;-0.80;99.90
3100;DHT22;1560;52.746;13.474;2023-02-28T08:46:24;-0.80;99.90
3100;DHT22;1560;52.746;13.474;2023-02-28T08:51:29;-0.60;99.90
3100;DHT22;1560;52.746;13.474;2023-02-28T08:54:00;-0.50;99.90
3100;DHT22;1560;52.746;13.474;2023-02-28T08:56:29;-0.40;99.90
3100;DHT22;1560;52.746;13.474;2023-02-28T08:58:58;-0.30;99.90
3100;DHT22;1560;52.746;13.474;2023-02-28T09:01:28;-0.20;99.90
3100;DHT22;1560;52.746;13.474;2023-02-28T09:06:35;0.10;99.90
3100;DHT22;1560;52.746;13.474;2023-02-28T09:09:04;0.20;56.00
3100;DHT22;1560;52.746;13.474;2023-02-28T09:11:35;0.40;1.00
3100;DHT22;1560;52.746;13.474;2023-02-28T09:14:04;0.60;1.00
3100;DHT22;1560;52.746;13.474;2023-02-28T09:19:12;1.00;1.00
3100;DHT22;1560;52.746;13.474;2023-02-28T09:21:40;1.30;41.40
3100;DHT22;1560;52.746;13.474;2023-02-28T09:26:47;2.00;99.90
3100;DHT22;1560;52.746;13.474;2023-02-28T09:31:53;2.50;1.00
3100;DHT22;1560;52.746;13.474;2023-02-28T09:34:22;2.70;99.90
3100;DHT22;1560;52.746;13.474;2023-02-28T09:36:51;2.90;99.90
3100;DHT22;1560;52.746;13.474;2023-02-28T09:39:22;2.80;99.90
3100;DHT22;1560;52.746;13.474;2023-02-28T09:44:37;2.60;1.00
3100;DHT22;1560;52.746;13.474;2023-02-28T09:49:47;2.50;99.90
3100;DHT22;1560;52.746;13.474;2023-02-28T09:52:18;2.40;1.00
3100;DHT22;1560;52.746;13.474;2023-02-28T09:57:29;2.50;99.90
3100;DHT22;1560;52.746;13.474;2023-02-28T10:00:04;2.60;99.90
3100;DHT22;1560;52.746;13.474;2023-02-28T10:05:18;2.50;99.90
3100;DHT22;1560;52.746;13.474;2023-02-28T10:07:58;2.50;1.00
3100;DHT22;1560;52.746;13.474;2023-02-28T10:10:33;2.50;99.90
3100;DHT22;1560;52.746;13.474;2023-02-28T10:15:39;2.60;99.90
3100;DHT22;1560;52.746;13.474;2023-02-28T10:18:12;2.60;3.40
3100;DHT22;1560;52.746;13.474;2023-02-28T10:20:43;2.70;1.00
3100;DHT22;1560;52.746;13.474;2023-02-28T10:25:55;3.10;99.90
3100;DHT22;1560;52.746;13.474;2023-02-28T10:28:26;3.40;99.90
3100;DHT22;1560;52.746;13.474;2023-02-28T10:30:57;3.40;1.00
3100;DHT22;1560;52.746;13.474;2023-02-28T10:36:09;4.00;1.00
3100;DHT22;1560;52.746;13.474;2023-02-28T10:38:39;4.20;92.80
3100;DHT22;1560;52.746;13.474;2023-02-28T10:41:09;4.70;31.90
3100;DHT22;1560;52.746;13.474;2023-02-28T10:43:40;4.50;1.00
3100;DHT22;1560;52.746;13.474;2023-02-28T10:46:15;4.40;1.00
3100;DHT22;1560;52.746;13.474;2023-02-28T10:48:50;4.60;17.50
3100;DHT22;1560;52.746;13.474;2023-02-28T10:53:56;4.80;1.00
3100;DHT22;1560;52.746;13.474;2023-02-28T10:56:25;5.00;1.00
3100;DHT22;1560;52.746;13.474;2023-02-28T10:58:57;4.90;1.00
3100;DHT22;1560;52.746;13.474;2023-02-28T11:01:35;4.90;1.00
3100;DHT22;1560;52.746;13.474;2023-02-28T11:04:12;5.00;1.00
3100;DHT22;1560;52.746;13.474;2023-02-28T11:06:42;5.10;1.00
3100;DHT22;1560;52.746;13.474;2023-02-28T11:09:20;4.90;1.00
3100;DHT22;1560;52.746;13.474;2023-02-28T11:14:27;4.70;1.00
3100;DHT22;1560;52.746;13.474;2023-02-28T11:22:19;4.80;1.00
3100;DHT22;1560;52.746;13.474;2023-02-28T11:24:50;4.70;1.00
3100;DHT22;1560;52.746;13.474;2023-02-28T11:27:47;4.70;1.00
3100;DHT22;1560;52.746;13.474;2023-02-28T11:30:32;4.70;1.00
3100;DHT22;1560;52.746;13.474;2023-02-28T11:35:39;4.80;1.00
3100;DHT22;1560;52.746;13.474;2023-02-28T11:38:10;4.90;1.00
3100;DHT22;1560;52.746;13.474;2023-02-28T11:43:25;4.70;1.00
3100;DHT22;1560;52.746;13.474;2023-02-28T11:46:02;4.70;1.00
3100;DHT22;1560;52.746;13.474;2023-02-28T11:48:36;5.20;34.60
3100;DHT22;1560;52.746;13.474;2023-02-28T11:51:08;5.70;1.00
3100;DHT22;1560;52.746;13.474;2023-02-28T11:56:46;5.90;1.00
3100;DHT22;1560;52.746;13.474;2023-02-28T11:59:35;5.60;1.00
3100;DHT22;1560;52.746;13.474;2023-02-28T12:02:20;5.50;1.00
3100;DHT22;1560;52.746;13.474;2023-02-28T12:04:59;5.40;1.00
3100;DHT22;1560;52.746;13.474;2023-02-28T12:07:31;5.30;1.00
3100;DHT22;1560;52.746;13.474;2023-02-28T12:10:05;5.30;1.00
3100;DHT22;1560;52.746;13.474;2023-02-28T12:12:43;5.20;1.00
3100;DHT22;1560;52.746;13.474;2023-02-28T12:15:38;5.10;1.00
3100;DHT22;1560;52.746;13.474;2023-02-28T12:18:21;5.00;1.00
3100;DHT22;1560;52.746;13.474;2023-02-28T12:20:53;5.00;1.00
3100;DHT22;1560;52.746;13.474;2023-02-28T12:23:44;5.10;1.00
3100;DHT22;1560;52.746;13.474;2023-02-28T12:31:35;5.70;1.00
3100;DHT22;1560;52.746;13.474;2023-02-28T12:34:06;5.80;1.00
3100;DHT22;1560;52.746;13.474;2023-02-28T12:36:37;5.90;1.00
3100;DHT22;1560;52.746;13.474;2023-02-28T12:41:51;6.00;1.00
3100;DHT22;1560;52.746;13.474;2023-02-28T12:44:30;6.00;1.00
3100;DHT22;1560;52.746;13.474;2023-02-28T12:46:54;5.80;1.00
3100;DHT22;1560;52.746;13.474;2023-02-28T12:52:01;6.20;1.00
3100;DHT22;1560;52.746;13.474;2023-02-28T12:54:35;6.60;1.00
3100;DHT22;1560;52.746;13.474;2023-02-28T12:57:07;6.80;1.00
3100;DHT22;1560;52.746;13.474;2023-02-28T12:59:39;6.70;1.00
3100;DHT22;1560;52.746;13.474;2023-02-28T13:02:33;6.60;1.00
3100;DHT22;1560;52.746;13.474;2023-02-28T13:11:02;6.60;1.00
3100;DHT22;1560;52.746;13.474;2023-02-28T13:13:32;6.60;1.00
3100;DHT22;1560;52.746;13.474;2023-02-28T13:18:39;6.20;1.00
3100;DHT22;1560;52.746;13.474;2023-02-28T13:24:00;5.70;1.00
3100;DHT22;1560;52.746;13.474;2023-02-28T13:27:21;5.60;1.00
3100;DHT22;1560;52.746;13.474;2023-02-28T13:29:53;5.50;1.00
3100;DHT22;1560;52.746;13.474;2023-02-28T13:32:34;5.50;1.00
3100;DHT22;1560;52.746;13.474;2023-02-28T13:37:54;5.50;1.00
3100;DHT22;1560;52.746;13.474;2023-02-28T13:43:09;5.50;1.00
3100;DHT22;1560;52.746;13.474;2023-02-28T13:45:38;5.20;1.00
3100;DHT22;1560;52.746;13.474;2023-02-28T13:48:18;5.20;1.00
3100;DHT22;1560;52.746;13.474;2023-02-28T13:50:47;5.20;1.00
3100;DHT22;1560;52.746;13.474;2023-02-28T13:53:46;5.20;1.00
3100;DHT22;1560;52.746;13.474;2023-02-28T13:56:28;5.20;1.00
3100;DHT22;1560;52.746;13.474;2023-02-28T13:59:01;5.10;1.00
3100;DHT22;1560;52.746;13.474;2023-02-28T14:01:43;5.10;1.00
3100;DHT22;1560;52.746;13.474;2023-02-28T14:10:03;5.10;1.00
3100;DHT22;1560;52.746;13.474;2023-02-28T14:15:57;5.20;1.00
3100;DHT22;1560;52.746;13.474;2023-02-28T14:18:30;5.20;1.00
3100;DHT22;1560;52.746;13.474;2023-02-28T14:21:09;5.20;1.00
3100;DHT22;1560;52.746;13.474;2023-02-28T14:29:36;5.30;1.00
3100;DHT22;1560;52.746;13.474;2023-02-28T14:32:12;5.30;1.00
3100;DHT22;1560;52.746;13.474;2023-02-28T14:34:44;5.30;1.00
3100;DHT22;1560;52.746;13.474;2023-02-28T14:39:51;5.30;1.00
3100;DHT22;1560;52.746;13.474;2023-02-28T14:45:19;5.00;1.00
3100;DHT22;1560;52.746;13.474;2023-02-28T14:47:50;5.00;1.00
3100;DHT22;1560;52.746;13.474;2023-02-28T14:50:22;5.00;1.00
3100;DHT22;1560;52.746;13.474;2023-02-28T14:52:53;5.00;1.00
3100;DHT22;1560;52.746;13.474;2023-02-28T14:55:26;5.10;1.00
3100;DHT22;1560;52.746;13.474;2023-02-28T14:57:56;5.10;1.00
3100;DHT22;1560;52.746;13.474;2023-02-28T15:03:17;4.90;1.00
3100;DHT22;1560;52.746;13.474;2023-02-28T15:05:47;4.90;1.00
3100;DHT22;1560;52.746;13.474;2023-02-28T15:08:17;4.80;1.00
3100;DHT22;1560;52.746;13.474;2023-02-28T15:10:53;4.70;1.00
3100;DHT22;1560;52.746;13.474;2023-02-28T15:13:35;4.80;1.00
3100;DHT22;1560;52.746;13.474;2023-02-28T15:15:56;4.80;1.00
3100;DHT22;1560;52.746;13.474;2023-02-28T15:18:31;4.80;37.70
3100;DHT22;1560;52.746;13.474;2023-02-28T15:21:03;4.70;47.20
3100;DHT22;1560;52.746;13.474;2023-02-28T15:26:14;4.50;9.60
3100;DHT22;1560;52.746;13.474;2023-02-28T15:31:31;4.40;1.00
3100;DHT22;1560;52.746;13.474;2023-02-28T15:34:15;4.30;1.00
3100;DHT22;1560;52.746;13.474;2023-02-28T15:36:44;4.30;1.00
3100;DHT22;1560;52.746;13.474;2023-02-28T15:39:21;4.30;5.60
3100;DHT22;1560;52.746;13.474;2023-02-28T15:41:51;4.30;99.90
3100;DHT22;1560;52.746;13.474;2023-02-28T15:57:31;4.20;99.90
3100;DHT22;1560;52.746;13.474;2023-02-28T16:13:13;4.00;99.90
3100;DHT22;1560;52.746;13.474;2023-02-28T16:15:47;3.60;1.00
3100;DHT22;1560;52.746;13.474;2023-02-28T16:18:19;3.40;1.00
3100;DHT22;1560;52.746;13.474;2023-02-28T16:20:48;3.40;1.00
3100;DHT22;1560;52.746;13.474;2023-02-28T16:23:17;3.30;51.30
3100;DHT22;1560;52.746;13.474;2023-02-28T16:25:50;3.30;99.90
3100;DHT22;1560;52.746;13.474;2023-02-28T16:28:23;3.20;99.90
3100;DHT22;1560;52.746;13.474;2023-02-28T17:05:58;3.10;1.00
3100;DHT22;1560;52.746;13.474;2023-02-28T17:08:27;2.40;99.90
3100;DHT22;1560;52.746;13.474;2023-02-28T17:24:37;2.30;99.90
3100;DHT22;1560;52.746;13.474;2023-02-28T17:27:09;2.10;1.00
3100;DHT22;1560;52.746;13.474;2023-02-28T17:29:42;2.00;1.00
3100;DHT22;1560;52.746;13.474;2023-02-28T17:34:51;1.80;99.90
3100;DHT22;1560;52.746;13.474;2023-02-28T17:37:20;1.80;99.90
3100;DHT22;1560;52.746;13.474;2023-02-28T17:39:49;1.70;1.00
3100;DHT22;1560;52.746;13.474;2023-02-28T17:42:17;1.70;99.90
3100;DHT22;1560;52.746;13.474;2023-02-28T17:44:46;1.60;99.90
3100;DHT22;1560;52.746;13.474;2023-02-28T17:49:51;1.50;1.00
3100;DHT22;1560;52.746;13.474;2023-02-28T17:54:56;1.40;99.90
3100;DHT22;1560;52.746;13.474;2023-02-28T18:00:04;1.40;1.00
3100;DHT22;1560;52.746;13.474;2023-02-28T18:05:12;1.30;99.90
3100;DHT22;1560;52.746;13.474;2023-02-28T18:07:41;1.20;99.90
3100;DHT22;1560;52.746;13.474;2023-02-28T18:10:14;1.20;99.90
3100;DHT22;1560;52.746;13.474;2023-02-28T18:12:46;1.20;1.00
3100;DHT22;1560;52.746;13.474;2023-02-28T18:15:16;1.20;99.90
3100;DHT22;1560;52.746;13.474;2023-02-28T18:17:47;1.10;1.00
3100;DHT22;1560;52.746;13.474;2023-02-28T18:20:16;1.10;1.00
3100;DHT22;1560;52.746;13.474;2023-02-28T18:25:21;1.00;1.00
3100;DHT22;1560;52.746;13.474;2023-02-28T18:27:50;0.90;99.90
3100;DHT22;1560;52.746;13.474;2023-02-28T18:33:08;0.80;99.90
3100;DHT22;1560;52.746;13.474;2023-02-28T18:38:16;0.70;1.00
3100;DHT22;1560;52.746;13.474;2023-02-28T18:40:52;0.60;1.00
3100;DHT22;1560;52.746;13.474;2023-02-28T18:43:21;0.50;99.90
3100;DHT22;1560;52.746;13.474;2023-02-28T18:45:50;0.40;1.00
3100;DHT22;1560;52.746;13.474;2023-02-28T18:48:19;0.30;99.90
3100;DHT22;1560;52.746;13.474;2023-02-28T18:50:50;0.30;13.00
3100;DHT22;1560;52.746;13.474;2023-02-28T18:53:19;0.30;1.00
3100;DHT22;1560;52.746;13.474;2023-02-28T18:55:47;0.30;99.90
3100;DHT22;1560;52.746;13.474;2023-02-28T18:58:16;0.20;99.90
3100;DHT22;1560;52.746;13.474;2023-02-28T19:03:21;0.10;99.90
3100;DHT22;1560;52.746;13.474;2023-02-28T19:05:53;0.10;75.60
3100;DHT22;1560;52.746;13.474;2023-02-28T19:08:23;0.10;1.00
3100;DHT22;1560;52.746;13.474;2023-02-28T19:10:51;0.10;99.90
3100;DHT22;1560;52.746;13.474;2023-02-28T19:13:20;0.10;99.90
3100;DHT22;1560;52.746;13.474;2023-02-28T19:18:26;0.00;99.90
3100;DHT22;1560;52.746;13.474;2023-02-28T19:23:32;0.00;99.90
3100;DHT22;1560;52.746;13.474;2023-02-28T19:26:05;-0.10;1.00
3100;DHT22;1560;52.746;13.474;2023-02-28T19:28:34;-0.10;1.00
3100;DHT22;1560;52.746;13.474;2023-02-28T19:31:03;-0.20;1.00
3100;DHT22;1560;52.746;13.474;2023-02-28T19:36:11;-0.20;1.00
3100;DHT22;1560;52.746;13.474;2023-02-28T19:38:40;-0.20;1.00
3100;DHT22;1560;52.746;13.474;2023-02-28T19:44:02;-0.30;99.90
3100;DHT22;1560;52.746;13.474;2023-02-28T19:49:07;-0.40;1.00
3100;DHT22;1560;52.746;13.474;2023-02-28T19:51:36;-0.40;99.90
3100;DHT22;1560;52.746;13.474;2023-02-28T19:54:05;-0.40;1.00
3100;DHT22;1560;52.746;13.474;2023-02-28T19:56:34;-0.50;1.00
3100;DHT22;1560;52.746;13.474;2023-02-28T19:59:03;-0.50;1.00
3100;DHT22;1560;52.746;13.474;2023-02-28T20:01:32;-0.50;99.90
3100;DHT22;1560;52.746;13.474;2023-02-28T20:04:00;-0.50;1.00
3100;DHT22;1560;52.746;13.474;2023-02-28T20:09:09;-0.50;1.00
3100;DHT22;1560;52.746;13.474;2023-02-28T20:11:38;-0.50;99.90
3100;DHT22;1560;52.746;13.474;2023-02-28T20:14:06;-0.50;99.90
3100;DHT22;1560;52.746;13.474;2023-02-28T20:16:35;-0.50;51.00
3100;DHT22;1560;52.746;13.474;2023-02-28T20:19:04;-0.60;1.00
3100;DHT22;1560;52.746;13.474;2023-02-28T20:21:33;-0.60;21.00
3100;DHT22;1560;52.746;13.474;2023-02-28T20:24:02;-0.70;1.00
3100;DHT22;1560;52.746;13.474;2023-02-28T20:26:31;-0.80;1.00
3100;DHT22;1560;52.746;13.474;2023-02-28T20:29:00;-0.80;1.00
3100;DHT22;1560;52.746;13.474;2023-02-28T20:31:31;-0.80;1.00
3100;DHT22;1560;52.746;13.474;2023-02-28T20:36:38;-0.80;1.00
3100;DHT22;1560;52.746;13.474;2023-02-28T20:39:07;-0.90;1.00
3100;DHT22;1560;52.746;13.474;2023-02-28T20:41:36;-0.90;20.10
3100;DHT22;1560;52.746;13.474;2023-02-28T20:44:05;-0.90;94.70
3100;DHT22;1560;52.746;13.474;2023-02-28T20:46:34;-1.00;99.90
3100;DHT22;1560;52.746;13.474;2023-02-28T20:49:03;-1.10;99.90
3100;DHT22;1560;52.746;13.474;2023-02-28T20:54:10;-1.00;99.90
3100;DHT22;1560;52.746;13.474;2023-02-28T20:56:38;-1.10;99.90
3100;DHT22;1560;52.746;13.474;2023-02-28T20:59:10;-1.00;1.00
3100;DHT22;1560;52.746;13.474;2023-02-28T21:04:15;-1.00;1.00
3100;DHT22;1560;52.746;13.474;2023-02-28T21:06:44;-1.00;1.00
3100;DHT22;1560;52.746;13.474;2023-02-28T21:09:14;-1.00;1.00
3100;DHT22;1560;52.746;13.474;2023-02-28T21:14:34;-1.00;1.00
3100;DHT22;1560;52.746;13.474;2023-02-28T21:17:02;-1.00;19.80
3100;DHT22;1560;52.746;13.474;2023-02-28T21:19:33;-1.10;58.40
3100;DHT22;1560;52.746;13.474;2023-02-28T21:22:01;-1.10;9.30
3100;DHT22;1560;52.746;13.474;2023-02-28T21:27:06;-1.20;1.00
3100;DHT22;1560;52.746;13.474;2023-02-28T21:32:11;-1.20;1.00
3100;DHT22;1560;52.746;13.474;2023-02-28T21:34:41;-1.30;27.40
3100;DHT22;1560;52.746;13.474;2023-02-28T21:37:10;-1.20;99.90
3100;DHT22;1560;52.746;13.474;2023-02-28T21:42:17;-1.30;99.90
3100;DHT22;1560;52.746;13.474;2023-02-28T21:44:46;-1.30;99.90
3100;DHT22;1560;52.746;13.474;2023-02-28T21:47:14;-1.30;99.90
3100;DHT22;1560;52.746;13.474;2023-02-28T21:52:24;-1.40;99.90
3100;DHT22;1560;52.746;13.474;2023-02-28T21:57:30;-1.40;99.90
3100;DHT22;1560;52.746;13.474;2023-02-28T22:00:01;-1.40;99.90
3100;DHT22;1560;52.746;13.474;2023-02-28T22:02:33;-1.40;99.90
3100;DHT22;1560;52.746;13.474;2023-02-28T22:05:09;-1.50;99.90
3100;DHT22;1560;52.746;13.474;2023-02-28T22:07:38;-1.50;99.90
3100;DHT22;1560;52.746;13.474;2023-02-28T22:10:10;-1.50;99.90
3100;DHT22;1560;52.746;13.474;2023-02-28T22:15:16;-1.50;99.90
3100;DHT22;1560;52.746;13.474;2023-02-28T22:17:44;-1.60;99.90
3100;DHT22;1560;52.746;13.474;2023-02-28T22:20:13;-1.60;99.90
3100;DHT22;1560;52.746;13.474;2023-02-28T22:22:42;-1.60;99.90
3100;DHT22;1560;52.746;13.474;2023-02-28T22:25:11;-1.60;99.90
3100;DHT22;1560;52.746;13.474;2023-02-28T22:30:21;-1.70;99.90
3100;DHT22;1560;52.746;13.474;2023-02-28T22:35:26;-1.70;99.90
3100;DHT22;1560;52.746;13.474;2023-02-28T22:37:54;-1.80;91.00
3100;DHT22;1560;52.746;13.474;2023-02-28T22:40:23;-1.90;19.40
3100;DHT22;1560;52.746;13.474;2023-02-28T22:42:52;-1.90;64.10
3100;DHT22;1560;52.746;13.474;2023-02-28T22:47:57;-1.90;99.90
3100;DHT22;1560;52.746;13.474;2023-02-28T22:50:26;-1.90;99.90
3100;DHT22;1560;52.746;13.474;2023-02-28T22:52:55;-1.90;99.90